createdAt,value
2023-01-12T00:01:41.429Z,3.40
2023-01-12T00:04:08.387Z,2.53
2023-01-12T00:06:35.301Z,3.73
2023-01-12T00:09:04.036Z,3.63
2023-01-12T00:11:31.208Z,3.37
2023-01-12T00:13:58.444Z,3.20
2023-01-12T00:16:35.157Z,3.27
2023-01-12T00:19:02.529Z,3.07
2023-01-12T00:21:29.332Z,3.17
2023-01-12T00:23:56.012Z,3.43
2023-01-12T00:26:22.740Z,2.70
2023-01-12T00:28:49.479Z,3.60
2023-01-12T00:31:16.189Z,3.00
2023-01-12T00:33:42.900Z,3.10
2023-01-12T00:36:15.777Z,4.20
2023-01-12T00:38:42.407Z,3.30
2023-01-12T00:41:11.083Z,3.40
2023-01-12T00:43:56.995Z,3.10
2023-01-12T00:46:31.061Z,3.37
2023-01-12T00:48:57.889Z,3.83
2023-01-12T00:51:24.890Z,2.80
2023-01-12T00:53:51.599Z,3.27
2023-01-12T00:56:18.279Z,3.57
2023-01-12T00:58:44.946Z,3.07
2023-01-12T01:01:11.724Z,3.20
2023-01-12T01:03:38.584Z,3.30
2023-01-12T01:06:07.126Z,2.83
2023-01-12T01:08:37.596Z,3.20
2023-01-12T01:11:06.938Z,2.70
2023-01-12T01:13:36.546Z,3.27
2023-01-12T01:16:05.051Z,2.90
2023-01-12T01:18:33.175Z,2.83
2023-01-12T01:20:59.887Z,2.70
2023-01-12T01:23:28.821Z,2.67
2023-01-12T01:25:56.026Z,2.73
2023-01-12T01:28:22.663Z,2.50
2023-01-12T01:30:49.589Z,2.40
2023-01-12T01:33:16.277Z,2.13
2023-01-12T01:35:42.988Z,2.00
2023-01-12T01:38:09.801Z,2.27
2023-01-12T01:40:42.490Z,2.20
2023-01-12T01:43:14.723Z,2.23
2023-01-12T01:45:44.609Z,2.30
2023-01-12T01:48:15.123Z,2.47
2023-01-12T01:50:48.584Z,2.50
2023-01-12T01:53:21.190Z,2.23
2023-01-12T01:55:59.909Z,2.20
2023-01-12T01:58:36.969Z,2.50
2023-01-12T02:01:03.951Z,2.40
2023-01-12T02:03:36.565Z,2.97
2023-01-12T02:06:06.343Z,2.97
2023-01-12T02:08:51.841Z,3.37
2023-01-12T02:11:38.228Z,3.10
2023-01-12T02:14:37.621Z,2.80
2023-01-12T02:17:21.150Z,3.40
2023-01-12T02:20:29.300Z,4.00
2023-01-12T02:23:11.174Z,3.77
2023-01-12T02:25:47.162Z,3.63
2023-01-12T02:28:26.162Z,3.77
2023-01-12T02:31:07.863Z,4.20
2023-01-12T02:33:47.523Z,4.20
2023-01-12T02:36:35.359Z,4.43
2023-01-12T02:39:26.485Z,4.23
2023-01-12T02:42:43.368Z,4.10
2023-01-12T02:45:10.117Z,4.40
2023-01-12T02:47:48.862Z,4.13
2023-01-12T02:50:29.925Z,4.63
2023-01-12T02:53:03.136Z,5.07
2023-01-12T02:55:30.686Z,4.53
2023-01-12T02:57:58.593Z,3.87
2023-01-12T03:00:26.445Z,4.30
2023-01-12T03:02:53.204Z,4.40
2023-01-12T03:05:20.028Z,4.30
2023-01-12T03:07:52.913Z,5.13
2023-01-12T03:10:57.718Z,4.60
2023-01-12T03:13:27.678Z,4.20
2023-01-12T03:15:56.980Z,3.70
2023-01-12T03:18:26.278Z,3.87
2023-01-12T03:21:00.970Z,3.90
2023-01-12T03:23:41.117Z,4.00
2023-01-12T03:26:10.691Z,4.47
2023-01-12T03:28:43.301Z,4.50
2023-01-12T03:31:13.164Z,4.10
2023-01-12T03:33:42.007Z,4.37
2023-01-12T03:36:09.027Z,4.50
2023-01-12T03:38:48.911Z,4.53
2023-01-12T03:41:53.983Z,4.43
2023-01-12T03:44:29.968Z,3.67
2023-01-12T03:47:03.650Z,4.57
2023-01-12T03:49:42.942Z,4.73
2023-01-12T03:52:12.869Z,5.37
2023-01-12T03:54:42.798Z,5.60
2023-01-12T03:57:12.290Z,6.37
2023-01-12T03:59:40.670Z,5.40
2023-01-12T04:02:07.510Z,5.33
2023-01-12T04:04:34.306Z,5.00
2023-01-12T04:07:01.912Z,5.13
2023-01-12T04:09:28.970Z,5.80
2023-01-12T04:12:10.861Z,5.60
2023-01-12T04:14:42.978Z,5.53
2023-01-12T04:17:11.843Z,5.73
2023-01-12T04:19:38.589Z,5.63
2023-01-12T04:22:24.335Z,5.77
2023-01-12T04:24:51.132Z,5.13
2023-01-12T04:27:18.596Z,4.80
2023-01-12T04:29:45.348Z,5.03
2023-01-12T04:32:12.595Z,4.53
2023-01-12T04:34:39.617Z,5.00
2023-01-12T04:37:06.387Z,3.43
2023-01-12T04:39:33.147Z,3.70
2023-01-12T04:41:59.791Z,3.87
2023-01-12T04:44:26.514Z,3.43
2023-01-12T04:46:53.185Z,3.40
2023-01-12T04:49:20.148Z,2.83
2023-01-12T04:51:47.034Z,2.93
2023-01-12T04:54:13.747Z,2.80
2023-01-12T04:56:40.720Z,2.90
2023-01-12T04:59:09.881Z,2.60
2023-01-12T05:01:39.087Z,3.00
2023-01-12T05:04:07.917Z,2.73
2023-01-12T05:06:35.117Z,2.50
2023-01-12T05:09:20.264Z,2.97
2023-01-12T05:11:47.078Z,3.80
2023-01-12T05:14:13.731Z,2.97
2023-01-12T05:16:40.593Z,3.63
2023-01-12T05:19:09.262Z,3.37
2023-01-12T05:21:35.939Z,3.40
2023-01-12T05:24:02.652Z,3.27
2023-01-12T05:26:29.379Z,2.87
2023-01-12T05:28:56.370Z,3.10
2023-01-12T05:31:23.126Z,3.27
2023-01-12T05:33:49.969Z,2.77
2023-01-12T05:36:17.877Z,3.30
2023-01-12T05:38:44.723Z,3.33
2023-01-12T05:41:13.222Z,3.03
2023-01-12T05:43:52.462Z,2.67
2023-01-12T05:46:28.862Z,2.63
2023-01-12T05:48:57.232Z,2.50
2023-01-12T05:51:26.598Z,2.90
2023-01-12T05:53:54.399Z,2.70
2023-01-12T05:56:26.484Z,3.17
2023-01-12T05:58:56.555Z,2.50
2023-01-12T06:01:23.440Z,2.60
2023-01-12T06:03:55.498Z,2.73
2023-01-12T06:06:23.742Z,2.47
2023-01-12T06:08:52.696Z,2.40
2023-01-12T06:11:38.986Z,2.20
2023-01-12T06:14:06.000Z,2.60
2023-01-12T06:16:32.819Z,2.20
2023-01-12T06:18:59.617Z,2.10
2023-01-12T06:21:26.350Z,2.60
2023-01-12T06:23:53.076Z,2.40
2023-01-12T06:26:19.872Z,1.87
2023-01-12T06:28:46.619Z,1.70
2023-01-12T06:31:14.155Z,1.83
2023-01-12T06:33:41.264Z,1.50
2023-01-12T06:36:08.544Z,1.30
2023-01-12T06:38:37.177Z,1.70
2023-01-12T06:41:05.712Z,1.50
2023-01-12T06:43:32.869Z,1.40
2023-01-12T06:45:59.950Z,1.70
2023-01-12T06:48:26.796Z,1.73
2023-01-12T06:51:06.173Z,1.47
2023-01-12T06:53:33.033Z,1.10
2023-01-12T06:55:59.771Z,1.40
2023-01-12T06:58:26.475Z,1.10
2023-01-12T07:00:53.198Z,1.50
2023-01-12T07:03:20.567Z,1.20
2023-01-12T07:05:47.369Z,1.10
2023-01-12T07:08:19.224Z,1.00
2023-01-12T07:10:46.391Z,1.00
2023-01-12T07:13:13.556Z,1.00
2023-01-12T07:15:40.366Z,0.90
2023-01-12T07:18:07.172Z,0.83
2023-01-12T07:20:33.893Z,0.97
2023-01-12T07:23:00.666Z,0.80
2023-01-12T07:25:27.623Z,0.90
2023-01-12T07:27:58.325Z,0.90
2023-01-12T07:30:26.529Z,0.70
2023-01-12T07:32:54.078Z,1.00
2023-01-12T07:35:22.498Z,0.90
2023-01-12T07:37:56.588Z,0.73
2023-01-12T07:40:23.413Z,0.77
2023-01-12T07:43:01.529Z,0.77
2023-01-12T07:45:30.290Z,0.80
2023-01-12T07:47:57.657Z,0.77
2023-01-12T07:50:25.909Z,0.83
2023-01-12T07:52:53.401Z,0.70
2023-01-12T07:55:20.939Z,0.90
2023-01-12T07:57:58.083Z,0.70
2023-01-12T08:00:26.134Z,1.23
2023-01-12T08:02:54.681Z,0.60
2023-01-12T08:05:22.842Z,1.03
2023-01-12T08:07:49.718Z,0.90
2023-01-12T08:10:17.141Z,0.90
2023-01-12T08:12:44.363Z,0.60
2023-01-12T08:15:12.670Z,0.70
2023-01-12T08:17:49.161Z,0.87
2023-01-12T08:20:28.495Z,0.87
2023-01-12T08:23:01.477Z,0.83
2023-01-12T08:25:35.882Z,1.13
2023-01-12T08:28:07.921Z,0.90
2023-01-12T08:30:35.447Z,0.80
2023-01-12T08:33:03.107Z,0.80
2023-01-12T08:35:34.450Z,0.80
2023-01-12T08:38:01.577Z,0.70
2023-01-12T08:40:48.436Z,0.80
2023-01-12T08:43:35.088Z,0.80
2023-01-12T08:46:08.060Z,0.80
2023-01-12T08:48:36.858Z,0.70
2023-01-12T08:51:04.832Z,0.77
2023-01-12T08:53:32.484Z,0.70
2023-01-12T08:55:59.470Z,0.80
2023-01-12T08:58:26.477Z,0.60
2023-01-12T09:00:53.521Z,0.90
2023-01-12T09:03:20.437Z,0.60
2023-01-12T09:05:48.111Z,0.80
2023-01-12T09:08:15.038Z,0.70
2023-01-12T09:10:41.764Z,0.60
2023-01-12T09:13:10.095Z,0.60
2023-01-12T09:15:37.329Z,0.70
2023-01-12T09:18:04.507Z,0.83
2023-01-12T09:20:31.377Z,0.60
2023-01-12T09:22:58.380Z,0.80
2023-01-12T09:25:25.161Z,0.80
2023-01-12T09:27:51.887Z,0.70
2023-01-12T09:30:18.699Z,0.77
2023-01-12T09:32:45.371Z,0.80
2023-01-12T09:35:12.008Z,0.73
2023-01-12T09:37:40.649Z,0.90
2023-01-12T09:40:10.047Z,0.70
2023-01-12T09:42:55.858Z,0.80
2023-01-12T09:45:41.921Z,1.07
2023-01-12T09:48:12.166Z,1.30
2023-01-12T09:50:50.529Z,1.13
2023-01-12T09:53:25.902Z,1.10
2023-01-12T09:56:28.411Z,1.10
2023-01-12T09:59:01.031Z,1.33
2023-01-12T10:01:30.214Z,1.40
2023-01-12T10:03:59.881Z,1.43
2023-01-12T10:06:27.017Z,1.30
2023-01-12T10:08:57.170Z,2.00
2023-01-12T10:11:23.892Z,2.07
2023-01-12T10:14:21.535Z,1.53
2023-01-12T10:16:51.523Z,1.53
2023-01-12T10:19:20.760Z,1.60
2023-01-12T10:21:48.222Z,1.53
2023-01-12T10:24:15.825Z,1.60
2023-01-12T10:26:45.566Z,1.50
2023-01-12T10:29:14.151Z,1.60
2023-01-12T10:31:41.550Z,1.40
2023-01-12T10:34:12.103Z,1.60
2023-01-12T10:36:44.461Z,1.40
2023-01-12T10:39:31.347Z,1.37
2023-01-12T10:42:36.527Z,1.90
2023-01-12T10:45:19.167Z,1.83
2023-01-12T10:47:47.173Z,1.90
2023-01-12T10:50:28.074Z,1.60
2023-01-12T10:53:03.761Z,1.90
2023-01-12T10:55:34.075Z,2.10
2023-01-12T10:58:00.880Z,1.93
2023-01-12T11:00:29.970Z,1.80
2023-01-12T11:02:56.956Z,1.87
2023-01-12T11:05:30.224Z,1.97
2023-01-12T11:07:57.971Z,2.27
2023-01-12T11:10:30.876Z,2.40
2023-01-12T11:13:05.966Z,2.50
2023-01-12T11:15:39.117Z,2.17
2023-01-12T11:18:08.861Z,2.50
2023-01-12T11:20:39.694Z,2.47
2023-01-12T11:23:16.669Z,2.23
2023-01-12T11:25:46.222Z,2.23
2023-01-12T11:28:16.192Z,2.50
2023-01-12T11:31:00.743Z,2.60
2023-01-12T11:33:45.057Z,2.47
2023-01-12T11:36:17.649Z,2.30
2023-01-12T11:38:50.690Z,2.17
2023-01-12T11:41:20.539Z,2.43
2023-01-12T11:44:02.238Z,2.10
2023-01-12T11:46:57.007Z,2.10
2023-01-12T11:49:29.549Z,1.97
2023-01-12T11:51:58.622Z,1.70
2023-01-12T11:54:28.161Z,1.50
2023-01-12T11:57:32.537Z,1.90
2023-01-12T12:00:23.750Z,1.67
2023-01-12T12:03:19.176Z,1.70
2023-01-12T12:06:09.268Z,1.60
2023-01-12T12:08:58.630Z,1.80
2023-01-12T12:11:41.806Z,1.83
2023-01-12T12:14:23.895Z,1.90
2023-01-12T12:17:20.981Z,2.00
2023-01-12T12:20:12.340Z,2.17
2023-01-12T12:23:03.114Z,2.33
2023-01-12T12:25:51.606Z,2.00
2023-01-12T12:28:30.440Z,2.20
2023-01-12T12:31:21.159Z,1.80
2023-01-12T12:33:59.981Z,2.20
2023-01-12T12:36:29.534Z,2.33
2023-01-12T12:39:25.772Z,2.17
2023-01-12T12:42:33.834Z,2.27
2023-01-12T12:45:16.845Z,2.27
2023-01-12T12:48:06.650Z,2.07
2023-01-12T12:50:44.144Z,2.00
2023-01-12T12:53:22.980Z,2.00
2023-01-12T12:55:51.939Z,2.10
2023-01-12T12:58:21.607Z,2.13
2023-01-12T13:00:50.452Z,2.37
2023-01-12T13:03:41.912Z,2.10
2023-01-12T13:06:20.924Z,1.93
2023-01-12T13:08:50.964Z,2.20
2023-01-12T13:11:18.952Z,1.83
2023-01-12T13:14:24.790Z,1.97
2023-01-12T13:16:53.591Z,2.10
2023-01-12T13:19:43.239Z,1.90
2023-01-12T13:22:28.160Z,1.80
2023-01-12T13:24:56.781Z,1.90
2023-01-12T13:27:56.393Z,1.80
2023-01-12T13:30:29.151Z,2.00
2023-01-12T13:33:15.161Z,2.20
2023-01-12T13:35:45.094Z,2.07
2023-01-12T13:38:34.218Z,1.90
2023-01-12T13:41:14.653Z,2.00
2023-01-12T13:43:49.904Z,2.03
2023-01-12T13:46:21.242Z,2.00
2023-01-12T13:48:50.709Z,1.80
2023-01-12T13:51:39.749Z,2.10
2023-01-12T13:54:11.697Z,1.90
2023-01-12T13:56:39.703Z,2.20
2023-01-12T13:59:16.035Z,2.03
2023-01-12T14:01:45.708Z,2.00
2023-01-12T14:04:17.335Z,2.23
2023-01-12T14:06:57.507Z,2.00
2023-01-12T14:09:34.952Z,2.20
2023-01-12T14:12:17.799Z,2.17
2023-01-12T14:15:25.900Z,2.60
2023-01-12T14:18:02.688Z,2.30
2023-01-12T14:20:34.173Z,2.30
2023-01-12T14:23:19.660Z,2.50
2023-01-12T14:26:02.478Z,2.00
2023-01-12T14:28:29.824Z,2.50
2023-01-12T14:30:57.108Z,2.33
2023-01-12T14:33:27.078Z,2.37
2023-01-12T14:35:57.303Z,2.40
2023-01-12T14:38:27.090Z,2.50
2023-01-12T14:40:56.668Z,2.37
2023-01-12T14:43:42.331Z,2.37
2023-01-12T14:46:47.575Z,2.20
2023-01-12T14:49:20.366Z,2.00
2023-01-12T14:52:12.923Z,1.90
2023-01-12T14:54:39.724Z,2.20
2023-01-12T14:57:18.036Z,2.27
2023-01-12T14:59:47.286Z,2.00
2023-01-12T15:02:15.874Z,2.20
2023-01-12T15:05:00.710Z,2.20
2023-01-12T15:07:33.113Z,1.90
2023-01-12T15:10:08.857Z,1.70
2023-01-12T15:12:39.055Z,1.80
2023-01-12T15:15:17.575Z,1.60
2023-01-12T15:18:03.154Z,1.53
2023-01-12T15:20:52.807Z,1.90
2023-01-12T15:23:42.615Z,1.80
2023-01-12T15:26:09.499Z,1.93
2023-01-12T15:28:36.216Z,2.00
2023-01-12T15:31:02.955Z,2.30
2023-01-12T15:33:31.346Z,1.97
2023-01-12T15:35:59.567Z,2.40
2023-01-12T15:38:30.032Z,2.50
2023-01-12T15:40:58.289Z,2.90
2023-01-12T15:43:24.985Z,2.67
2023-01-12T15:45:51.837Z,2.90
2023-01-12T15:48:18.712Z,3.07
2023-01-12T15:50:46.625Z,2.80
2023-01-12T15:53:19.312Z,3.20
2023-01-12T15:55:46.744Z,3.47
2023-01-12T15:58:14.397Z,3.27
2023-01-12T16:00:44.089Z,3.60
2023-01-12T16:03:28.932Z,3.33
2023-01-12T16:05:59.703Z,3.20
2023-01-12T16:08:26.405Z,3.50
2023-01-12T16:11:12.164Z,3.63
2023-01-12T16:13:39.951Z,3.50
2023-01-12T16:16:08.056Z,3.23
2023-01-12T16:18:35.151Z,3.10
2023-01-12T16:21:02.336Z,3.60
2023-01-12T16:23:29.335Z,3.53
2023-01-12T16:25:57.953Z,3.53
2023-01-12T16:28:25.854Z,3.70
2023-01-12T16:30:53.052Z,3.40
2023-01-12T16:33:19.922Z,3.10
2023-01-12T16:35:47.111Z,3.13
2023-01-12T16:38:14.863Z,2.80
2023-01-12T16:40:42.476Z,2.67
2023-01-12T16:43:09.481Z,2.40
2023-01-12T16:45:40.541Z,2.67
2023-01-12T16:48:08.007Z,2.17
2023-01-12T16:50:34.829Z,2.17
2023-01-12T16:53:01.581Z,1.97
2023-01-12T16:55:28.243Z,2.17
2023-01-12T16:57:56.009Z,2.20
2023-01-12T17:00:23.071Z,2.20
2023-01-12T17:02:50.233Z,1.80
2023-01-12T17:05:17.147Z,2.10
2023-01-12T17:07:44.124Z,1.93
2023-01-12T17:10:11.184Z,2.20
2023-01-12T17:12:38.364Z,2.10
2023-01-12T17:15:20.813Z,2.30
2023-01-12T17:17:49.329Z,1.80
2023-01-12T17:20:16.394Z,1.80
2023-01-12T17:22:43.879Z,1.80
2023-01-12T17:25:11.596Z,1.90
2023-01-12T17:27:38.345Z,1.97
2023-01-12T17:30:05.789Z,2.00
2023-01-12T17:32:32.960Z,1.93
2023-01-12T17:34:59.798Z,1.80
2023-01-12T17:37:27.396Z,2.07
2023-01-12T17:39:58.261Z,1.83
2023-01-12T17:42:43.686Z,2.00
2023-01-12T17:45:10.527Z,2.00
2023-01-12T17:47:37.352Z,2.60
2023-01-12T17:50:04.348Z,2.20
2023-01-12T17:52:31.155Z,2.10
2023-01-12T17:54:57.899Z,2.30
2023-01-12T17:57:24.636Z,2.10
2023-01-12T17:59:51.416Z,1.97
2023-01-12T18:02:18.604Z,2.20
2023-01-12T18:04:46.319Z,2.20
2023-01-12T18:07:13.064Z,2.70
2023-01-12T18:09:39.901Z,2.40
2023-01-12T18:12:06.821Z,2.80
2023-01-12T18:14:34.354Z,2.77
2023-01-12T18:17:01.251Z,2.80
2023-01-12T18:19:28.103Z,2.90
2023-01-12T18:21:54.829Z,3.13
2023-01-12T18:24:22.348Z,2.90
2023-01-12T18:26:51.137Z,2.80
2023-01-12T18:29:17.939Z,2.57
2023-01-12T18:31:47.331Z,2.67
2023-01-12T18:34:16.584Z,2.63
2023-01-12T18:36:43.920Z,2.43
2023-01-12T18:39:17.939Z,2.60
2023-01-12T18:42:03.243Z,2.60
2023-01-12T18:44:31.483Z,2.67
2023-01-12T18:47:17.660Z,2.57
2023-01-12T18:49:51.948Z,2.50
2023-01-12T18:52:37.214Z,2.30
2023-01-12T18:55:05.548Z,2.47
2023-01-12T18:57:33.296Z,2.13
2023-01-12T19:00:15.836Z,2.23
2023-01-12T19:02:43.283Z,2.10
2023-01-12T19:05:23.399Z,2.27
2023-01-12T19:07:51.557Z,2.33
2023-01-12T19:10:18.473Z,2.00
2023-01-12T19:12:46.182Z,2.40
2023-01-12T19:15:32.774Z,2.13
2023-01-12T19:18:01.003Z,1.97
2023-01-12T19:20:31.841Z,2.00
2023-01-12T19:23:17.740Z,1.97
2023-01-12T19:26:03.716Z,2.40
2023-01-12T19:28:35.480Z,2.03
2023-01-12T19:31:09.842Z,2.23
2023-01-12T19:33:37.345Z,2.10
2023-01-12T19:36:07.072Z,1.90
2023-01-12T19:38:36.507Z,2.30
2023-01-12T19:41:23.927Z,2.40
2023-01-12T19:43:50.657Z,2.50
2023-01-12T19:46:18.100Z,2.40
2023-01-12T19:48:45.584Z,2.70
2023-01-12T19:51:12.378Z,3.17
2023-01-12T19:53:40.464Z,3.30
2023-01-12T19:56:12.077Z,2.70
2023-01-12T19:58:39.257Z,3.10
2023-01-12T20:01:06.442Z,3.23
2023-01-12T20:03:33.704Z,3.30
2023-01-12T20:06:05.816Z,2.80
2023-01-12T20:08:33.065Z,2.60
2023-01-12T20:11:03.241Z,2.60
2023-01-12T20:13:32.779Z,2.73
2023-01-12T20:16:00.171Z,2.90
2023-01-12T20:18:26.953Z,2.97
2023-01-12T20:20:58.727Z,2.87
2023-01-12T20:23:25.418Z,3.00
2023-01-12T20:25:52.194Z,3.20
2023-01-12T20:28:19.223Z,3.33
2023-01-12T20:30:46.096Z,3.50
2023-01-12T20:33:13.033Z,2.93
2023-01-12T20:35:45.398Z,3.23
2023-01-12T20:38:16.832Z,3.90
2023-01-12T20:40:45.441Z,3.70
2023-01-12T20:43:12.827Z,3.60
2023-01-12T20:45:41.957Z,3.50
2023-01-12T20:48:09.909Z,3.80
2023-01-12T20:50:42.086Z,3.10
2023-01-12T20:53:10.511Z,3.30
2023-01-12T20:55:59.136Z,3.27
2023-01-12T20:58:25.912Z,3.07
2023-01-12T21:00:53.369Z,3.50
2023-01-12T21:03:20.429Z,3.10
2023-01-12T21:05:48.120Z,3.40
2023-01-12T21:08:17.109Z,3.70
2023-01-12T21:10:54.374Z,3.90
2023-01-12T21:13:22.109Z,4.00
2023-01-12T21:15:49.476Z,3.83
2023-01-12T21:18:19.658Z,3.97
2023-01-12T21:20:47.454Z,4.47
2023-01-12T21:23:20.204Z,4.30
2023-01-12T21:25:49.244Z,4.90
2023-01-12T21:28:16.893Z,4.63
2023-01-12T21:30:54.586Z,4.40
2023-01-12T21:33:21.336Z,3.93
2023-01-12T21:35:58.992Z,4.40
2023-01-12T21:38:27.225Z,3.57
2023-01-12T21:40:59.941Z,3.17
2023-01-12T21:43:27.467Z,3.50
2023-01-12T21:45:57.915Z,3.33
2023-01-12T21:48:26.157Z,3.10
2023-01-12T21:50:53.267Z,3.40
2023-01-12T21:53:22.339Z,3.40
2023-01-12T21:55:57.221Z,3.23
2023-01-12T21:58:25.661Z,3.90
2023-01-12T22:00:56.401Z,3.13
2023-01-12T22:03:24.885Z,2.93
2023-01-12T22:05:51.939Z,3.57
2023-01-12T22:08:18.992Z,3.70
2023-01-12T22:10:45.761Z,3.93
2023-01-12T22:13:17.724Z,3.87
2023-01-12T22:15:45.243Z,3.80
2023-01-12T22:18:12.537Z,3.93
2023-01-12T22:20:41.902Z,3.37
2023-01-12T22:23:13.173Z,3.33
2023-01-12T22:25:41.023Z,3.80
2023-01-12T22:28:08.310Z,3.20
2023-01-12T22:30:38.223Z,3.57
2023-01-12T22:33:15.967Z,3.90
2023-01-12T22:35:47.997Z,3.73
2023-01-12T22:38:15.594Z,3.93
2023-01-12T22:40:42.462Z,3.77
2023-01-12T22:43:27.929Z,3.70
2023-01-12T22:45:58.024Z,3.83
2023-01-12T22:48:26.757Z,3.67
2023-01-12T22:50:57.135Z,3.90
2023-01-12T22:53:24.214Z,4.00
2023-01-12T22:55:52.695Z,4.40
2023-01-12T22:58:19.385Z,4.57
2023-01-12T23:00:46.357Z,4.60
2023-01-12T23:03:13.763Z,4.47
2023-01-12T23:05:47.275Z,5.23
2023-01-12T23:08:15.593Z,5.43
2023-01-12T23:10:44.314Z,4.80
2023-01-12T23:13:21.477Z,4.33
2023-01-12T23:15:55.719Z,4.50
2023-01-12T23:18:28.044Z,4.10
2023-01-12T23:21:11.369Z,4.23
2023-01-12T23:23:38.815Z,3.60
2023-01-12T23:26:08.895Z,3.57
2023-01-12T23:28:39.005Z,3.90
2023-01-12T23:31:08.652Z,3.63
2023-01-12T23:33:36.905Z,3.63
2023-01-12T23:36:09.629Z,3.70
2023-01-12T23:38:36.917Z,3.20
2023-01-12T23:41:18.301Z,3.40
2023-01-12T23:43:49.057Z,3.63
2023-01-12T23:46:17.422Z,3.80
2023-01-12T23:48:44.273Z,3.83
2023-01-12T23:51:11.118Z,3.33
2023-01-12T23:53:38.159Z,4.00
2023-01-12T23:56:07.446Z,4.20
2023-01-12T23:58:34.215Z,4.30
